createdAt,value
2018-07-27T00:00:37.515Z,0
2018-07-27T00:01:38.233Z,0
2018-07-27T00:02:38.958Z,0
2018-07-27T00:03:39.671Z,0
2018-07-27T00:04:40.389Z,0
2018-07-27T00:05:41.106Z,0
2018-07-27T00:06:41.825Z,0
2018-07-27T00:07:42.541Z,0
2018-07-27T00:08:43.259Z,0
2018-07-27T00:09:43.979Z,0
2018-07-27T00:10:44.701Z,0
2018-07-27T00:11:45.417Z,0
2018-07-27T00:12:46.137Z,0
2018-07-27T00:13:46.853Z,0
2018-07-27T00:14:47.569Z,0
2018-07-27T00:15:48.286Z,0
2018-07-27T00:16:49.015Z,0
2018-07-27T00:17:49.744Z,0
2018-07-27T00:18:50.465Z,0
2018-07-27T00:19:51.180Z,0
2018-07-27T00:20:51.915Z,0
2018-07-27T00:21:52.637Z,0
2018-07-27T00:22:53.357Z,0
2018-07-27T00:23:54.085Z,0
2018-07-27T00:24:54.855Z,0
2018-07-27T00:25:55.571Z,0
2018-07-27T00:26:56.299Z,0
2018-07-27T00:27:57.030Z,0
2018-07-27T00:28:57.749Z,0
2018-07-27T00:29:58.461Z,0
2018-07-27T00:30:59.178Z,0
2018-07-27T00:31:59.908Z,0
2018-07-27T00:33:00.636Z,0
2018-07-27T00:34:01.356Z,0
2018-07-27T00:35:02.083Z,0
2018-07-27T00:36:02.800Z,0
2018-07-27T00:37:03.526Z,0
2018-07-27T00:38:04.245Z,0
2018-07-27T00:39:04.973Z,0
2018-07-27T00:40:05.711Z,0
2018-07-27T00:41:06.422Z,0
2018-07-27T00:42:07.151Z,0
2018-07-27T00:43:07.868Z,0
2018-07-27T00:44:08.584Z,0
2018-07-27T00:45:09.301Z,0
2018-07-27T00:46:10.015Z,0
2018-07-27T00:47:10.730Z,0
2018-07-27T00:48:11.446Z,0
2018-07-27T00:49:12.179Z,0
2018-07-27T00:50:12.897Z,0
2018-07-27T00:51:14.427Z,0
2018-07-27T00:52:15.162Z,0
2018-07-27T00:53:15.893Z,0
2018-07-27T00:54:16.628Z,0
2018-07-27T00:55:17.345Z,0
2018-07-27T00:56:18.062Z,0
2018-07-27T00:57:18.777Z,0
2018-07-27T00:58:19.494Z,0
2018-07-27T00:59:20.210Z,0
2018-07-27T01:00:20.928Z,0
2018-07-27T01:01:21.648Z,0
2018-07-27T01:02:22.368Z,0
2018-07-27T01:03:23.089Z,0
2018-07-27T01:04:23.802Z,0
2018-07-27T01:05:24.520Z,0
2018-07-27T01:06:25.252Z,0
2018-07-27T01:07:25.979Z,0
2018-07-27T01:08:26.698Z,0
2018-07-27T01:09:27.413Z,0
2018-07-27T01:10:28.142Z,0
2018-07-27T01:11:28.864Z,0
2018-07-27T01:12:29.589Z,0
2018-07-27T01:13:30.305Z,0
2018-07-27T01:14:31.026Z,0
2018-07-27T01:15:31.744Z,0
2018-07-27T01:16:32.460Z,0
2018-07-27T01:17:33.178Z,0
2018-07-27T01:18:33.892Z,0
2018-07-27T01:19:34.612Z,0
2018-07-27T01:20:35.330Z,0
2018-07-27T01:21:36.047Z,0
2018-07-27T01:22:36.759Z,0
2018-07-27T01:23:37.478Z,0
2018-07-27T01:24:38.198Z,0
2018-07-27T01:25:38.919Z,0
2018-07-27T01:26:39.637Z,0
2018-07-27T01:27:40.358Z,0
2018-07-27T01:28:41.079Z,0
2018-07-27T01:29:41.796Z,0
2018-07-27T01:30:42.531Z,0
2018-07-27T01:31:43.263Z,0
2018-07-27T01:32:43.985Z,0
2018-07-27T01:33:44.704Z,0
2018-07-27T01:34:45.420Z,0
2018-07-27T01:35:46.139Z,0
2018-07-27T01:36:46.860Z,0
2018-07-27T01:37:47.593Z,0
2018-07-27T01:38:48.309Z,0
2018-07-27T01:39:49.024Z,0
2018-07-27T01:40:49.741Z,0
2018-07-27T01:41:50.471Z,0
2018-07-27T01:42:51.193Z,0
2018-07-27T01:43:51.911Z,0
2018-07-27T01:44:52.642Z,0
2018-07-27T01:45:53.358Z,0
2018-07-27T01:46:54.086Z,0
2018-07-27T01:47:54.804Z,0
2018-07-27T01:48:55.547Z,0
2018-07-27T01:49:56.265Z,0
2018-07-27T01:50:57.064Z,0
2018-07-27T01:51:57.697Z,0
2018-07-27T01:52:58.428Z,0
2018-07-27T01:53:59.147Z,0
2018-07-27T01:54:59.881Z,0
2018-07-27T01:56:00.603Z,0
2018-07-27T01:57:01.324Z,0
2018-07-27T01:58:02.047Z,0
2018-07-27T01:59:02.763Z,0
2018-07-27T02:00:03.482Z,0
2018-07-27T02:01:04.202Z,0
2018-07-27T02:02:04.924Z,0
2018-07-27T02:03:05.645Z,0
2018-07-27T02:04:06.366Z,0
2018-07-27T02:05:07.086Z,0
2018-07-27T02:06:07.865Z,0
2018-07-27T02:07:08.524Z,0
2018-07-27T02:08:09.248Z,0
2018-07-27T02:09:09.969Z,0
2018-07-27T02:10:10.694Z,0
2018-07-27T02:11:11.412Z,0
2018-07-27T02:12:12.133Z,0
2018-07-27T02:13:12.865Z,0
2018-07-27T02:14:13.588Z,0
2018-07-27T02:15:14.323Z,0
2018-07-27T02:16:15.056Z,0
2018-07-27T02:17:15.781Z,0
2018-07-27T02:18:16.514Z,0
2018-07-27T02:19:17.247Z,0
2018-07-27T02:20:17.969Z,0
2018-07-27T02:21:18.699Z,0
2018-07-27T02:22:19.421Z,0
2018-07-27T02:23:20.152Z,0
2018-07-27T02:24:21.024Z,0
2018-07-27T02:25:21.760Z,0
2018-07-27T02:26:22.481Z,0
2018-07-27T02:27:23.202Z,0
2018-07-27T02:28:23.923Z,0
2018-07-27T02:29:24.642Z,0
2018-07-27T02:30:25.364Z,0
2018-07-27T02:31:26.086Z,0
2018-07-27T02:32:26.803Z,0
2018-07-27T02:33:27.537Z,0
2018-07-27T02:34:28.268Z,0
2018-07-27T02:35:28.991Z,0
2018-07-27T02:36:29.712Z,0
2018-07-27T02:37:30.443Z,0
2018-07-27T02:38:31.163Z,0
2018-07-27T02:39:31.882Z,0
2018-07-27T02:40:32.601Z,0
2018-07-27T02:41:33.335Z,0
2018-07-27T02:42:34.054Z,0
2018-07-27T02:43:34.775Z,0
2018-07-27T02:44:35.497Z,0
2018-07-27T02:45:36.225Z,0
2018-07-27T02:46:36.937Z,0
2018-07-27T02:47:37.656Z,0
2018-07-27T02:48:38.390Z,0
2018-07-27T02:49:39.108Z,0
2018-07-27T02:50:39.829Z,0
2018-07-27T02:51:40.553Z,0
2018-07-27T02:52:41.271Z,0
2018-07-27T02:53:42.007Z,0
2018-07-27T02:54:42.734Z,0
2018-07-27T02:55:43.459Z,0
2018-07-27T02:56:44.194Z,0
2018-07-27T02:57:44.928Z,0
2018-07-27T02:58:45.648Z,0
2018-07-27T02:59:46.378Z,0
2018-07-27T03:00:47.100Z,0
2018-07-27T03:01:47.833Z,0
2018-07-27T03:02:48.565Z,0
2018-07-27T03:03:49.289Z,0
2018-07-27T03:04:50.021Z,0
2018-07-27T03:05:50.741Z,0
2018-07-27T03:06:51.462Z,4
2018-07-27T03:07:52.197Z,4
2018-07-27T03:08:52.916Z,0
2018-07-27T03:09:53.665Z,0
2018-07-27T03:10:54.367Z,4
2018-07-27T03:11:55.088Z,0
2018-07-27T03:12:55.818Z,4
2018-07-27T03:13:56.544Z,4
2018-07-27T03:14:57.257Z,4
2018-07-27T03:15:57.978Z,8
2018-07-27T03:16:58.695Z,8
2018-07-27T03:17:59.428Z,8
2018-07-27T03:19:00.162Z,8
2018-07-27T03:20:00.885Z,8
2018-07-27T03:21:01.618Z,12
2018-07-27T03:22:02.354Z,12
2018-07-27T03:23:03.088Z,16
2018-07-27T03:24:03.809Z,16
2018-07-27T03:25:04.537Z,20
2018-07-27T03:26:05.266Z,20
2018-07-27T03:27:05.990Z,24
2018-07-27T03:28:06.709Z,28
2018-07-27T03:29:07.430Z,32
2018-07-27T03:30:08.153Z,36
2018-07-27T03:31:08.870Z,40
2018-07-27T03:32:09.592Z,44
2018-07-27T03:33:10.312Z,48
2018-07-27T03:34:11.032Z,60
2018-07-27T03:35:11.754Z,64
2018-07-27T03:36:12.477Z,68
2018-07-27T03:37:13.199Z,76
2018-07-27T03:38:13.930Z,84
2018-07-27T03:39:14.648Z,92
2018-07-27T03:40:15.386Z,104
2018-07-27T03:41:16.121Z,112
2018-07-27T03:42:16.853Z,116
2018-07-27T03:43:17.579Z,128
2018-07-27T03:44:18.303Z,140
2018-07-27T03:45:19.035Z,148
2018-07-27T03:46:19.770Z,160
2018-07-27T03:47:20.491Z,176
2018-07-27T03:48:21.212Z,188
2018-07-27T03:49:21.934Z,200
2018-07-27T03:50:22.656Z,216
2018-07-27T03:51:23.378Z,232
2018-07-27T03:52:24.097Z,248
2018-07-27T03:53:24.820Z,260
2018-07-27T03:54:25.548Z,280
2018-07-27T03:55:26.279Z,296
2018-07-27T03:56:27.001Z,312
2018-07-27T03:57:27.722Z,328
2018-07-27T03:58:28.446Z,348
2018-07-27T03:59:29.172Z,364
2018-07-27T04:00:29.890Z,380
2018-07-27T04:01:30.611Z,404
2018-07-27T04:02:31.334Z,420
2018-07-27T04:03:32.060Z,440
2018-07-27T04:04:32.800Z,456
2018-07-27T04:05:33.534Z,476
2018-07-27T04:06:34.255Z,492
2018-07-27T04:07:34.978Z,512
2018-07-27T04:08:35.755Z,524
2018-07-27T04:09:36.436Z,544
2018-07-27T04:10:37.159Z,564
2018-07-27T04:11:37.884Z,580
2018-07-27T04:12:38.607Z,600
2018-07-27T04:13:39.342Z,620
2018-07-27T04:14:40.078Z,640
2018-07-27T04:15:40.800Z,660
2018-07-27T04:16:41.524Z,684
2018-07-27T04:17:42.249Z,700
2018-07-27T04:18:42.971Z,724
2018-07-27T04:19:43.706Z,748
2018-07-27T04:20:44.441Z,768
2018-07-27T04:21:45.186Z,788
2018-07-27T04:22:45.887Z,808
2018-07-27T04:23:46.611Z,828
2018-07-27T04:24:47.336Z,848
2018-07-27T04:25:48.069Z,868
2018-07-27T04:26:48.792Z,888
2018-07-27T04:27:49.510Z,908
2018-07-27T04:28:50.233Z,924
2018-07-27T04:29:50.956Z,944
2018-07-27T04:30:51.678Z,964
2018-07-27T04:31:52.412Z,984
2018-07-27T04:32:53.151Z,1004
2018-07-27T04:33:53.875Z,1024
2018-07-27T04:34:54.596Z,1044
2018-07-27T04:35:55.317Z,1068
2018-07-27T04:36:56.041Z,1084
2018-07-27T04:37:56.766Z,1104
2018-07-27T04:38:57.491Z,1120
2018-07-27T04:39:58.214Z,1136
2018-07-27T04:40:58.938Z,1152
2018-07-27T04:41:59.663Z,1168
2018-07-27T04:43:00.443Z,1184
2018-07-27T04:44:01.111Z,1192
2018-07-27T04:45:01.835Z,1200
2018-07-27T04:46:02.560Z,1212
2018-07-27T04:47:03.283Z,1220
2018-07-27T04:48:04.008Z,1232
2018-07-27T04:49:04.731Z,1244
2018-07-27T04:50:05.459Z,1260
2018-07-27T04:51:06.182Z,1272
2018-07-27T04:52:06.919Z,1288
2018-07-27T04:53:07.648Z,1316
2018-07-27T04:54:08.380Z,1336
2018-07-27T04:55:09.104Z,1356
2018-07-27T04:56:09.839Z,1380
2018-07-27T04:57:10.554Z,1416
2018-07-27T04:58:11.279Z,1428
2018-07-27T04:59:12.006Z,1448
2018-07-27T05:00:12.729Z,1460
2018-07-27T05:01:13.456Z,1496
2018-07-27T05:02:14.194Z,1536
2018-07-27T05:03:14.930Z,1592
2018-07-27T05:04:15.659Z,1656
2018-07-27T05:05:16.380Z,1740
2018-07-27T05:06:17.105Z,1820
2018-07-27T05:07:17.829Z,1880
2018-07-27T05:08:18.553Z,1896
2018-07-27T05:09:19.291Z,1908
2018-07-27T05:10:20.030Z,1916
2018-07-27T05:11:20.752Z,1928
2018-07-27T05:12:21.481Z,1948
2018-07-27T05:13:22.205Z,1996
2018-07-27T05:14:22.928Z,2052
2018-07-27T05:15:23.654Z,2064
2018-07-27T05:16:24.379Z,2120
2018-07-27T05:17:25.104Z,2216
2018-07-27T05:18:25.841Z,2308
2018-07-27T05:19:26.566Z,2380
2018-07-27T05:20:27.304Z,2436
2018-07-27T05:21:28.028Z,2492
2018-07-27T05:22:28.753Z,2528
2018-07-27T05:23:29.477Z,2532
2018-07-27T05:24:30.254Z,2524
2018-07-27T05:25:30.929Z,2536
2018-07-27T05:26:31.657Z,2576
2018-07-27T05:27:32.395Z,2588
2018-07-27T05:28:33.119Z,2568
2018-07-27T05:29:33.859Z,2588
2018-07-27T05:30:34.585Z,2652
2018-07-27T05:31:35.308Z,2696
2018-07-27T05:32:36.033Z,2700
2018-07-27T05:33:36.759Z,2664
2018-07-27T05:34:37.499Z,2612
2018-07-27T05:35:38.229Z,2552
2018-07-27T05:36:38.954Z,2536
2018-07-27T05:37:39.676Z,2536
2018-07-27T05:38:40.413Z,2500
2018-07-27T05:39:41.139Z,2456
2018-07-27T05:40:41.866Z,2444
2018-07-27T05:41:42.590Z,2448
2018-07-27T05:42:43.314Z,2452
2018-07-27T05:43:44.055Z,2432
2018-07-27T05:44:44.792Z,2444
2018-07-27T05:45:45.523Z,2436
2018-07-27T05:46:46.291Z,2440
2018-07-27T05:47:46.985Z,2428
2018-07-27T05:48:47.767Z,2428
2018-07-27T05:49:48.436Z,2472
2018-07-27T05:50:49.161Z,2516
2018-07-27T05:51:49.889Z,2552
2018-07-27T05:52:50.650Z,2584
2018-07-27T05:53:51.341Z,2640
2018-07-27T05:54:52.067Z,2680
2018-07-27T05:55:52.793Z,2728
2018-07-27T05:56:53.520Z,2792
2018-07-27T05:57:54.247Z,2872
2018-07-27T05:58:54.987Z,2976
2018-07-27T05:59:55.713Z,3068
2018-07-27T06:00:56.456Z,3064
2018-07-27T06:01:57.175Z,3036
2018-07-27T06:02:57.926Z,3004
2018-07-27T06:03:58.632Z,2984
2018-07-27T06:04:59.367Z,2964
2018-07-27T06:06:00.097Z,2948
2018-07-27T06:07:00.825Z,2908
2018-07-27T06:08:01.565Z,2868
2018-07-27T06:09:02.293Z,2840
2018-07-27T06:10:03.022Z,2824
2018-07-27T06:11:03.792Z,2804
2018-07-27T06:12:04.489Z,2808
2018-07-27T06:13:05.216Z,2792
2018-07-27T06:14:05.938Z,2796
2018-07-27T06:15:06.664Z,2792
2018-07-27T06:16:07.390Z,2812
2018-07-27T06:17:08.113Z,2820
2018-07-27T06:18:08.973Z,2824
2018-07-27T06:19:09.572Z,2832
2018-07-27T06:20:10.310Z,2840
2018-07-27T06:21:11.037Z,2832
2018-07-27T06:22:11.767Z,2860
2018-07-27T06:23:12.492Z,2860
2018-07-27T06:24:13.295Z,2868
2018-07-27T06:25:13.946Z,2876
2018-07-27T06:26:14.670Z,2888
2018-07-27T06:27:15.395Z,2904
2018-07-27T06:28:16.138Z,2912
2018-07-27T06:29:16.905Z,2924
2018-07-27T06:30:17.585Z,2928
2018-07-27T06:31:18.309Z,2948
2018-07-27T06:32:19.039Z,2936
2018-07-27T06:33:19.762Z,2960
2018-07-27T06:34:20.487Z,2976
2018-07-27T06:35:21.212Z,2976
2018-07-27T06:36:21.953Z,3004
2018-07-27T06:37:22.674Z,3012
2018-07-27T06:38:23.400Z,3024
2018-07-27T06:39:24.137Z,3040
2018-07-27T06:40:24.862Z,3048
2018-07-27T06:41:25.587Z,3068
2018-07-27T06:42:26.311Z,3092
2018-07-27T06:43:27.052Z,3104
2018-07-27T06:44:27.792Z,3112
2018-07-27T06:45:28.521Z,3128
2018-07-27T06:46:29.240Z,3144
2018-07-27T06:47:29.965Z,3148
2018-07-27T06:48:30.703Z,3176
2018-07-27T06:49:31.426Z,3172
2018-07-27T06:50:32.151Z,3200
2018-07-27T06:51:32.898Z,3212
2018-07-27T06:52:33.643Z,3220
2018-07-27T06:53:34.356Z,3232
2018-07-27T06:54:35.076Z,3248
2018-07-27T06:55:35.797Z,3264
2018-07-27T06:56:36.523Z,3276
2018-07-27T06:57:37.253Z,3284
2018-07-27T06:58:37.974Z,3284
2018-07-27T06:59:38.699Z,3304
2018-07-27T07:00:39.427Z,3304
2018-07-27T07:01:40.147Z,3324
2018-07-27T07:02:40.872Z,3320
2018-07-27T07:03:41.598Z,3336
2018-07-27T07:04:42.325Z,3340
2018-07-27T07:05:43.061Z,3336
2018-07-27T07:06:43.787Z,3344
2018-07-27T07:07:44.522Z,3348
2018-07-27T07:08:45.248Z,3388
2018-07-27T07:09:45.968Z,3372
2018-07-27T07:10:46.692Z,3396
2018-07-27T07:11:47.416Z,3388
2018-07-27T07:12:48.140Z,3404
2018-07-27T07:13:48.880Z,3408
2018-07-27T07:14:49.620Z,3428
2018-07-27T07:15:50.343Z,3432
2018-07-27T07:16:51.069Z,3408
2018-07-27T07:17:51.796Z,3436
2018-07-27T07:18:52.519Z,3480
2018-07-27T07:19:53.256Z,3468
2018-07-27T07:20:53.996Z,3496
2018-07-27T07:21:54.734Z,3420
2018-07-27T07:22:55.458Z,3520
2018-07-27T07:23:56.181Z,3524
2018-07-27T07:24:56.907Z,3532
2018-07-27T07:25:57.940Z,3508
2018-07-27T07:26:58.366Z,3524
2018-07-27T07:27:59.091Z,3560
2018-07-27T07:28:59.815Z,3536
2018-07-27T07:30:00.539Z,3552
2018-07-27T07:31:01.266Z,3580
2018-07-27T07:32:01.990Z,3544
2018-07-27T07:33:02.770Z,3584
2018-07-27T07:34:03.435Z,3588
2018-07-27T07:35:04.164Z,3612
2018-07-27T07:36:04.900Z,3608
2018-07-27T07:37:05.638Z,3612
2018-07-27T07:38:06.365Z,3632
2018-07-27T07:39:07.119Z,3656
2018-07-27T07:40:07.838Z,3648
2018-07-27T07:41:08.560Z,3656
2018-07-27T07:42:09.300Z,3652
2018-07-27T07:43:10.028Z,3684
2018-07-27T07:44:10.763Z,3696
2018-07-27T07:45:11.550Z,3704
2018-07-27T07:46:12.215Z,3760
2018-07-27T07:47:12.940Z,3756
2018-07-27T07:48:13.666Z,3760
2018-07-27T07:49:14.432Z,3776
2018-07-27T07:50:15.132Z,3776
2018-07-27T07:51:15.852Z,3812
2018-07-27T07:52:16.580Z,3788
2018-07-27T07:53:17.305Z,3820
2018-07-27T07:54:18.029Z,3848
2018-07-27T07:55:18.767Z,3872
2018-07-27T07:56:19.492Z,3860
2018-07-27T07:57:20.219Z,3908
2018-07-27T07:58:20.944Z,3924
2018-07-27T07:59:21.677Z,3936
2018-07-27T08:00:22.407Z,3964
2018-07-27T08:01:23.149Z,3972
2018-07-27T08:02:23.873Z,3996
2018-07-27T08:03:24.598Z,4028
2018-07-27T08:04:25.404Z,4076
2018-07-27T08:05:26.133Z,4100
2018-07-27T08:06:26.796Z,4188
2018-07-27T08:07:27.522Z,4316
2018-07-27T08:08:28.248Z,4244
2018-07-27T08:09:28.973Z,4312
2018-07-27T08:10:29.697Z,4324
2018-07-27T08:11:30.424Z,4388
2018-07-27T08:12:31.150Z,4444
2018-07-27T08:13:31.874Z,4524
2018-07-27T08:14:32.598Z,4568
2018-07-27T08:15:33.338Z,4664
2018-07-27T08:16:34.067Z,4712
2018-07-27T08:17:34.792Z,4744
2018-07-27T08:18:35.520Z,4748
2018-07-27T08:19:36.242Z,4792
2018-07-27T08:20:36.969Z,4860
2018-07-27T08:21:37.694Z,4924
2018-07-27T08:22:38.419Z,4984
2018-07-27T08:23:39.145Z,5048
2018-07-27T08:24:39.884Z,5056
2018-07-27T08:25:40.611Z,5096
2018-07-27T08:26:41.353Z,5176
2018-07-27T08:27:42.083Z,5252
2018-07-27T08:28:42.804Z,5340
2018-07-27T08:29:43.530Z,5392
2018-07-27T08:30:44.256Z,5488
2018-07-27T08:31:44.981Z,5596
2018-07-27T08:32:45.708Z,5712
2018-07-27T08:33:46.438Z,5936
2018-07-27T08:34:47.166Z,6048
2018-07-27T08:35:47.893Z,6312
2018-07-27T08:36:48.621Z,6844
2018-07-27T08:37:49.349Z,8000
2018-07-27T08:38:50.085Z,12344
2018-07-27T08:39:50.815Z,46560
2018-07-27T08:40:51.547Z,71712
2018-07-27T08:41:52.280Z,73152
2018-07-27T08:42:53.013Z,77088
2018-07-27T08:43:53.747Z,76960
2018-07-27T08:44:54.478Z,74720
2018-07-27T08:45:55.227Z,74976
2018-07-27T08:46:55.961Z,78880
2018-07-27T08:47:56.710Z,76416
2018-07-27T08:48:57.443Z,77536
2018-07-27T08:49:58.178Z,80736
2018-07-27T08:50:58.913Z,83712
2018-07-27T08:51:59.646Z,79744
2018-07-27T08:53:00.383Z,80608
2018-07-27T08:54:01.117Z,80928
2018-07-27T08:55:01.854Z,84832
2018-07-27T08:56:02.585Z,81792
2018-07-27T08:57:03.333Z,84480
2018-07-27T08:58:04.083Z,85472
2018-07-27T08:59:04.819Z,86464
2018-07-27T09:00:05.560Z,86720
2018-07-27T09:01:06.314Z,84352
2018-07-27T09:02:07.055Z,84640
2018-07-27T09:03:07.813Z,85376
2018-07-27T09:04:08.557Z,85632
2018-07-27T09:05:10.107Z,86208
2018-07-27T09:06:10.849Z,90912
2018-07-27T09:07:11.609Z,90784
2018-07-27T09:08:12.348Z,91296
2018-07-27T09:09:13.089Z,90752
2018-07-27T09:10:13.874Z,92672
2018-07-27T09:11:14.576Z,92320
2018-07-27T09:12:15.318Z,89856
2018-07-27T09:13:16.057Z,86592
2018-07-27T09:14:16.798Z,86144
2018-07-27T09:15:17.541Z,87360
2018-07-27T09:16:18.292Z,89888
2018-07-27T09:17:19.085Z,87936
2018-07-27T09:18:19.802Z,86528
2018-07-27T09:19:20.536Z,86624
2018-07-27T09:20:21.274Z,85728
2018-07-27T09:21:22.027Z,81568
2018-07-27T09:22:22.768Z,84448
2018-07-27T09:23:23.509Z,77664
2018-07-27T09:24:24.419Z,81664
2018-07-27T09:25:25.069Z,78912
2018-07-27T09:26:25.738Z,76928
2018-07-27T09:27:26.478Z,83424
2018-07-27T09:28:27.221Z,83008
2018-07-27T09:29:27.960Z,83200
2018-07-27T09:30:28.704Z,82112
2018-07-27T09:31:29.442Z,87712
2018-07-27T09:32:30.191Z,86304
2018-07-27T09:33:30.934Z,87648
2018-07-27T09:34:31.680Z,85696
2018-07-27T09:35:32.462Z,88352
2018-07-27T09:36:33.162Z,86080
2018-07-27T09:37:33.902Z,80768
2018-07-27T09:38:34.641Z,81760
2018-07-27T09:39:35.392Z,83072
2018-07-27T09:40:36.209Z,82720
2018-07-27T09:41:36.887Z,84352
2018-07-27T09:42:37.637Z,82240
2018-07-27T09:43:38.372Z,84960
2018-07-27T09:44:39.109Z,87552
2018-07-27T09:45:39.858Z,86368
2018-07-27T09:46:40.625Z,89952
2018-07-27T09:47:41.334Z,82048
2018-07-27T09:48:42.075Z,84736
2018-07-27T09:49:42.811Z,85728
2018-07-27T09:50:43.549Z,83104
2018-07-27T09:51:44.300Z,86912
2018-07-27T09:52:45.027Z,88480
2018-07-27T09:53:45.772Z,84128
2018-07-27T09:54:46.500Z,85184
2018-07-27T09:55:47.241Z,85568
2018-07-27T09:56:47.979Z,86816
2018-07-27T09:57:48.754Z,82976
2018-07-27T09:58:49.460Z,84704
2018-07-27T09:59:50.196Z,86208
2018-07-27T10:00:50.935Z,85216
2018-07-27T10:01:51.674Z,88640
2018-07-27T10:02:52.414Z,84768
2018-07-27T10:03:53.166Z,88256
2018-07-27T10:04:53.904Z,89344
2018-07-27T10:05:54.677Z,88576
2018-07-27T10:06:55.391Z,91712
2018-07-27T10:07:56.131Z,88736
2018-07-27T10:08:56.870Z,87328
2018-07-27T10:09:57.608Z,90848
2018-07-27T10:10:58.349Z,90176
2018-07-27T10:11:59.089Z,91840
2018-07-27T10:12:59.830Z,87584
2018-07-27T10:14:00.567Z,87680
2018-07-27T10:15:01.306Z,84064
2018-07-27T10:16:02.046Z,87616
2018-07-27T10:17:02.784Z,82784
2018-07-27T10:18:03.537Z,77184
2018-07-27T10:19:04.277Z,87424
2018-07-27T10:20:05.031Z,81024
2018-07-27T10:21:05.769Z,84928
2018-07-27T10:22:06.509Z,85856
2018-07-27T10:23:07.260Z,82592
2018-07-27T10:24:08.007Z,86112
2018-07-27T10:25:08.742Z,81344
2018-07-27T10:26:09.482Z,84320
2018-07-27T10:27:10.232Z,88544
2018-07-27T10:28:10.986Z,87744
2018-07-27T10:29:11.727Z,81216
2018-07-27T10:30:12.467Z,86752
2018-07-27T10:31:13.295Z,86688
2018-07-27T10:32:13.948Z,84448
2018-07-27T10:33:14.687Z,84960
2018-07-27T10:34:15.427Z,82112
2018-07-27T10:35:16.178Z,83456
2018-07-27T10:36:16.920Z,90464
2018-07-27T10:37:17.659Z,86432
2018-07-27T10:38:18.399Z,84256
2018-07-27T10:39:19.138Z,86848
2018-07-27T10:40:19.877Z,87488
2018-07-27T10:41:20.630Z,84512
2018-07-27T10:42:21.369Z,86080
2018-07-27T10:43:22.125Z,86368
2018-07-27T10:44:22.878Z,85088
2018-07-27T10:45:23.617Z,86624
2018-07-27T10:46:24.361Z,84160
2018-07-27T10:47:25.126Z,86464
2018-07-27T10:48:25.865Z,84512
2018-07-27T10:49:26.603Z,84160
2018-07-27T10:50:27.345Z,90336
2018-07-27T10:51:28.084Z,81280
2018-07-27T10:52:28.823Z,80928
2018-07-27T10:53:29.579Z,83840
2018-07-27T10:54:30.316Z,85280
2018-07-27T10:55:31.057Z,87680
2018-07-27T10:56:31.844Z,83840
2018-07-27T10:57:32.536Z,84288
2018-07-27T10:58:33.276Z,91008
2018-07-27T10:59:34.016Z,87136
2018-07-27T11:00:34.770Z,89632
2018-07-27T11:01:35.509Z,91584
2018-07-27T11:02:36.263Z,84224
2018-07-27T11:03:37.002Z,88704
2018-07-27T11:04:37.740Z,93728
2018-07-27T11:05:38.482Z,86432
2018-07-27T11:06:39.223Z,90560
2018-07-27T11:07:39.972Z,85952
2018-07-27T11:08:40.712Z,80896
2018-07-27T11:09:41.458Z,82848
2018-07-27T11:10:42.185Z,20800
2018-07-27T11:11:42.922Z,10172
2018-07-27T11:12:43.671Z,8388
2018-07-27T11:13:44.406Z,7592
2018-07-27T11:14:45.140Z,6988
2018-07-27T11:15:45.874Z,6372
2018-07-27T11:16:46.607Z,6056
2018-07-27T11:17:47.375Z,5852
2018-07-27T11:18:48.089Z,5732
2018-07-27T11:19:48.832Z,5624
2018-07-27T11:20:49.565Z,5528
2018-07-27T11:21:50.297Z,5428
2018-07-27T11:22:51.031Z,5344
2018-07-27T11:23:51.777Z,5280
2018-07-27T11:24:52.509Z,5272
2018-07-27T11:25:53.242Z,5200
2018-07-27T11:26:53.989Z,5152
2018-07-27T11:27:54.720Z,5160
2018-07-27T11:28:55.451Z,5084
2018-07-27T11:29:56.184Z,5056
2018-07-27T11:30:56.947Z,4972
2018-07-27T11:31:57.650Z,4892
2018-07-27T11:32:58.398Z,4812
2018-07-27T11:33:59.142Z,4868
2018-07-27T11:34:59.876Z,4844
2018-07-27T11:36:00.624Z,4708
2018-07-27T11:37:01.384Z,4636
2018-07-27T11:38:02.098Z,4588
2018-07-27T11:39:02.834Z,4520
2018-07-27T11:40:03.571Z,4480
2018-07-27T11:41:04.313Z,4324
2018-07-27T11:42:05.046Z,4104
2018-07-27T11:43:05.780Z,4108
2018-07-27T11:44:06.516Z,4128
2018-07-27T11:45:07.256Z,4040
2018-07-27T11:46:07.991Z,4032
2018-07-27T11:47:08.729Z,3968
2018-07-27T11:48:09.464Z,3956
2018-07-27T11:49:10.202Z,3916
2018-07-27T11:50:10.951Z,3920
2018-07-27T11:51:11.687Z,3932
2018-07-27T11:52:12.436Z,3996
2018-07-27T11:53:13.170Z,4000
2018-07-27T11:54:13.905Z,4032
2018-07-27T11:55:14.656Z,4016
2018-07-27T11:56:15.391Z,3984
2018-07-27T11:57:16.139Z,3940
2018-07-27T11:58:16.878Z,3936
2018-07-27T11:59:17.614Z,3948
2018-07-27T12:00:18.417Z,3956
2018-07-27T12:01:19.118Z,3840
2018-07-27T12:02:19.853Z,3760
2018-07-27T12:03:20.596Z,3780
2018-07-27T12:04:21.337Z,3708
2018-07-27T12:05:22.072Z,3684
2018-07-27T12:06:22.825Z,3632
2018-07-27T12:07:23.574Z,3620
2018-07-27T12:08:24.301Z,3620
2018-07-27T12:09:25.041Z,3576
2018-07-27T12:10:25.778Z,3608
2018-07-27T12:11:26.531Z,3632
2018-07-27T12:12:27.268Z,3616
2018-07-27T12:13:28.008Z,3604
2018-07-27T12:14:28.919Z,3476
2018-07-27T12:15:29.494Z,3468
2018-07-27T12:16:30.230Z,3472
2018-07-27T12:17:30.960Z,3476
2018-07-27T12:18:31.699Z,3484
2018-07-27T12:19:32.436Z,3504
2018-07-27T12:20:33.224Z,3468
2018-07-27T12:21:34.045Z,3448
2018-07-27T12:22:34.651Z,3464
2018-07-27T12:23:35.392Z,3476
2018-07-27T12:24:36.131Z,3472
2018-07-27T12:25:36.879Z,3440
2018-07-27T12:26:37.613Z,3448
2018-07-27T12:27:38.363Z,3440
2018-07-27T12:28:39.113Z,3388
2018-07-27T12:29:39.845Z,3348
2018-07-27T12:30:40.594Z,3780
2018-07-27T12:31:41.335Z,3664
2018-07-27T12:32:42.121Z,3636
2018-07-27T12:33:42.800Z,3624
2018-07-27T12:34:43.532Z,3560
2018-07-27T12:35:44.270Z,3600
2018-07-27T12:36:45.006Z,3544
2018-07-27T12:37:45.734Z,3528
2018-07-27T12:38:46.469Z,3508
2018-07-27T12:39:47.204Z,3496
2018-07-27T12:40:47.950Z,3500
2018-07-27T12:41:48.685Z,3484
2018-07-27T12:42:49.420Z,3444
2018-07-27T12:43:50.153Z,3356
2018-07-27T12:44:50.912Z,3372
2018-07-27T12:45:51.654Z,3360
2018-07-27T12:46:52.386Z,3328
2018-07-27T12:47:53.129Z,3256
2018-07-27T12:48:53.879Z,3188
2018-07-27T12:49:54.614Z,3148
2018-07-27T12:50:55.358Z,3132
2018-07-27T12:51:56.104Z,3100
2018-07-27T12:52:56.837Z,3100
2018-07-27T12:53:57.628Z,3084
2018-07-27T12:54:58.310Z,3084
2018-07-27T12:55:59.046Z,3072
2018-07-27T12:56:59.780Z,3076
2018-07-27T12:58:00.530Z,3052
2018-07-27T12:59:01.268Z,3048
2018-07-27T13:00:01.999Z,3040
2018-07-27T13:01:02.733Z,3008
2018-07-27T13:02:03.463Z,2996
2018-07-27T13:03:04.199Z,2952
2018-07-27T13:04:04.934Z,2968
2018-07-27T13:05:05.731Z,2956
2018-07-27T13:06:06.411Z,2912
2018-07-27T13:07:07.143Z,2908
2018-07-27T13:08:07.874Z,2892
2018-07-27T13:09:08.623Z,2876
2018-07-27T13:10:09.370Z,2852
2018-07-27T13:11:10.106Z,2828
2018-07-27T13:12:10.842Z,2816
2018-07-27T13:13:11.615Z,2800
2018-07-27T13:14:12.311Z,2808
2018-07-27T13:15:13.046Z,2792
2018-07-27T13:16:13.778Z,2788
2018-07-27T13:17:14.511Z,2776
2018-07-27T13:18:15.245Z,2768
2018-07-27T13:19:15.984Z,2760
2018-07-27T13:20:16.719Z,2764
2018-07-27T13:21:17.453Z,2796
2018-07-27T13:22:18.331Z,2780
2018-07-27T13:23:18.929Z,2788
2018-07-27T13:24:19.674Z,2784
2018-07-27T13:25:20.411Z,2776
2018-07-27T13:27:22.738Z,2708
2018-07-27T13:28:23.471Z,2692
2018-07-27T13:29:24.207Z,2672
2018-07-27T13:30:24.974Z,2680
2018-07-27T13:31:25.685Z,2680
2018-07-27T13:32:26.434Z,2640
2018-07-27T13:33:27.169Z,2652
2018-07-27T13:34:27.919Z,2628
2018-07-27T13:35:28.652Z,2596
2018-07-27T13:36:29.390Z,2576
2018-07-27T13:38:31.713Z,2536
2018-07-27T13:39:32.450Z,2516
2018-07-27T13:40:33.191Z,2520
2018-07-27T13:41:33.923Z,2492
2018-07-27T13:42:34.658Z,2488
2018-07-27T13:43:35.383Z,2468
2018-07-27T13:44:36.116Z,2484
2018-07-27T13:45:36.855Z,2480
2018-07-27T13:46:37.608Z,2468
2018-07-27T13:47:38.340Z,2496
2018-07-27T13:48:39.076Z,2472